Terminal Aerodrome Forecast
Issued by NWS

Home | Current Version | Previous Version | Text Only | Print | Product List | Glossary On
Versions: 1 2 3 4 5 6 7 8 9 10 11 12 13 14
492
FTUS46 KMFR 270532
TAFLMT
TAF
KLMT 270532Z 2706/2806 VRB03KT P6SM SCT050 BKN110
     FM272000 28006KT P6SM FEW100
     FM280000 31012KT P6SM SCT250
     FM280200 32016G22KT P6SM SCT250
     FM280300 32014KT P6SM SCT250
     FM280400 31010KT P6SM FEW250=

USA.gov is the U.S. government's official web portal to all federal, state and local government web resources and services.